Flugplatz Berlin-Schönefeld International

Bericht für EDDB

vom 15.12. um 05:20 UTC

Wind 3 kt aus 110°

Sichtweite 10 km oder mehr

gute Sicht, keine Wolken < 5000 ft, keine CB, keine Wettererscheinungen (CAVOK)

Temperatur 0.0°C

Taupunkt 0.0°C

Luftfeuchtigkeit 100%

Luftdruck 992 hPa

keine wesentliche Wetteränderung innerhalb den nächsten 2 Stunden zu erwarten

EDDB 150520Z 11003KT CAVOK 00/M00 Q0992 NOSIG

Prognose für EDDB

vom 15.12. um 05:00 UTC

Zwischen 06:00 UTC und 06:00 UTC

Wind 5 kt aus 160°

Sichtweite 10 km oder mehr

aufgelockert bewölkt in 4000 ft


Zwischen 06:00 UTC und 14:00 UTC zeitweise

Sichtweite 3500 m

schwacher Regen

schwacher Schnee

aufgebrochene Bewölkung in 1200 ft


Zwischen 06:00 und 09:00 UTC übergehend zu

Wind 6 kt aus 220°

Sichtweite 10 km oder mehr

aufgelockert bewölkt in 4000 ft


Zwischen 15:00 UTC und 06:00 UTC zeitweise mit einer Wahrscheinlichkeit von 30%

aufgebrochene Bewölkung in 1400 ft

TAF EDDB 150500Z 1506/1606 16005KT 9999 SCT040 BECMG 1506/1509 22006KT TEMPO 1506/1514 3500 -RASN BKN012 PROB30 TEMPO 1515/1606 BKN014
Impressum